createdAt,value
2023-08-29T00:00:10.608Z,101392.69
2023-08-29T00:02:41.983Z,101398.38
2023-08-29T00:05:10.223Z,101388.56
2023-08-29T00:07:37.174Z,101398.09
2023-08-29T00:10:04.559Z,101402.31
2023-08-29T00:12:33.172Z,101398.53
2023-08-29T00:15:05.280Z,101396.09
2023-08-29T00:17:32.254Z,101388.97
2023-08-29T00:19:58.753Z,101384.69
2023-08-29T00:22:25.256Z,101382.41
2023-08-29T00:24:53.526Z,101380.59
2023-08-29T00:27:22.633Z,101385.28
2023-08-29T00:29:49.378Z,101380.31
2023-08-29T00:32:16.004Z,101390.25
2023-08-29T00:34:42.740Z,101392.09
2023-08-29T00:37:09.318Z,101391.28
2023-08-29T00:39:35.844Z,101385.56
2023-08-29T00:42:02.561Z,101386.56
2023-08-29T00:44:29.082Z,101380.84
2023-08-29T00:46:56.032Z,101370.44
2023-08-29T00:49:28.068Z,101369.84
2023-08-29T00:51:55.220Z,101369.84
2023-08-29T00:54:22.634Z,101364.72
2023-08-29T00:56:49.772Z,101367.56
2023-08-29T00:59:16.985Z,101372.22
2023-08-29T01:01:45.006Z,101367.94
2023-08-29T01:04:11.585Z,101371.78
2023-08-29T01:06:38.980Z,101363.41
2023-08-29T01:09:08.471Z,101358.69
2023-08-29T01:11:58.211Z,101355.44
2023-08-29T01:15:04.638Z,101354.19
2023-08-29T01:17:41.001Z,101359.63
2023-08-29T01:20:09.534Z,101353.53
2023-08-29T01:22:45.433Z,101353.75
2023-08-29T01:25:31.528Z,101354.13
2023-08-29T01:27:58.262Z,101360.59
2023-08-29T01:30:25.269Z,101357.50
2023-08-29T01:32:52.693Z,101366.44
2023-08-29T01:35:19.451Z,101362.34
2023-08-29T01:37:45.922Z,101368.38
2023-08-29T01:40:12.494Z,101371.59
2023-08-29T01:42:39.061Z,101368.34
2023-08-29T01:45:06.535Z,101364.25
2023-08-29T01:47:33.193Z,101359.31
2023-08-29T01:50:02.242Z,101360.50
2023-08-29T01:52:28.837Z,101356.44
2023-08-29T01:54:55.429Z,101367.38
2023-08-29T01:57:23.329Z,101365.91
2023-08-29T01:59:50.952Z,101361.63
2023-08-29T02:02:18.926Z,101354.91
2023-08-29T02:04:45.431Z,101361.00
2023-08-29T02:07:11.950Z,101353.19
2023-08-29T02:09:38.476Z,101357.41
2023-08-29T02:12:05.169Z,101360.97
2023-08-29T02:14:33.040Z,101361.50
2023-08-29T02:16:59.589Z,101372.44
2023-08-29T02:19:27.417Z,101370.34
2023-08-29T02:21:54.025Z,101369.34
2023-08-29T02:24:20.587Z,101376.44
2023-08-29T02:26:47.103Z,101380.31
2023-08-29T02:29:13.643Z,101385.75
2023-08-29T02:31:40.169Z,101381.47
2023-08-29T02:34:06.709Z,101384.13
2023-08-29T02:36:33.200Z,101381.66
2023-08-29T02:38:59.685Z,101388.59
2023-08-29T02:41:26.387Z,101390.78
2023-08-29T02:43:52.822Z,101383.00
2023-08-29T02:46:19.370Z,101384.22
2023-08-29T02:48:45.879Z,101382.94
2023-08-29T02:51:12.424Z,101393.38
2023-08-29T02:53:38.902Z,101388.09
2023-08-29T02:56:05.422Z,101390.53
2023-08-29T02:58:31.957Z,101395.91
2023-08-29T03:01:00.138Z,101396.81
2023-08-29T03:03:27.634Z,101399.81
2023-08-29T03:05:58.640Z,101408.28
2023-08-29T03:08:26.383Z,101406.66
2023-08-29T03:10:53.972Z,101416.38
2023-08-29T03:13:20.969Z,101404.19
2023-08-29T03:15:47.960Z,101408.44
2023-08-29T03:18:15.384Z,101407.47
2023-08-29T03:20:42.786Z,101405.81
2023-08-29T03:23:09.324Z,101411.47
2023-08-29T03:25:35.932Z,101400.72
2023-08-29T03:28:02.432Z,101399.91
2023-08-29T03:30:29.637Z,101408.38
2023-08-29T03:32:56.252Z,101414.63
2023-08-29T03:35:24.108Z,101409.72
2023-08-29T03:37:50.609Z,101410.91
2023-08-29T03:40:17.165Z,101396.44
2023-08-29T03:42:43.772Z,101399.22
2023-08-29T03:45:10.437Z,101400.06
2023-08-29T03:47:40.194Z,101398.41
2023-08-29T03:50:08.009Z,101387.72
2023-08-29T03:52:34.517Z,101393.81
2023-08-29T03:55:01.122Z,101391.16
2023-08-29T03:57:28.268Z,101387.06
2023-08-29T03:59:54.928Z,101380.31
2023-08-29T04:02:21.922Z,101383.13
2023-08-29T04:04:53.516Z,101391.25
2023-08-29T04:07:20.214Z,101381.88
2023-08-29T04:09:46.798Z,101391.75
2023-08-29T04:12:13.390Z,101389.31
2023-08-29T04:14:39.961Z,101376.13
2023-08-29T04:17:06.563Z,101373.47
2023-08-29T04:19:33.415Z,101379.75
2023-08-29T04:22:00.052Z,101373.66
2023-08-29T04:24:26.572Z,101372.84
2023-08-29T04:26:54.051Z,101365.56
2023-08-29T04:29:20.573Z,101369.03
2023-08-29T04:31:48.129Z,101356.84
2023-08-29T04:34:14.996Z,101357.00
2023-08-29T04:36:41.528Z,101348.28
2023-08-29T04:39:08.017Z,101336.72
2023-08-29T04:41:34.519Z,101341.19
2023-08-29T04:44:01.032Z,101333.47
2023-08-29T04:46:27.872Z,101333.63
2023-08-29T04:48:54.589Z,101341.72
2023-08-29T04:51:21.175Z,101334.00
2023-08-29T04:53:48.294Z,101336.47
2023-08-29T04:56:14.839Z,101339.28
2023-08-29T04:58:41.971Z,101339.09
2023-08-29T05:01:08.566Z,101336.66
2023-08-29T05:03:35.227Z,101333.16
2023-08-29T05:06:01.832Z,101335.81
2023-08-29T05:08:28.371Z,101331.53
2023-08-29T05:10:54.913Z,101323.47
2023-08-29T05:13:21.454Z,101316.53
2023-08-29T05:15:48.074Z,101320.19
2023-08-29T05:18:14.676Z,101323.38
2023-08-29T05:20:41.253Z,101333.44
2023-08-29T05:23:07.771Z,101333.59
2023-08-29T05:25:34.300Z,101334.34
2023-08-29T05:28:01.002Z,101335.34
2023-08-29T05:30:27.568Z,101330.88
2023-08-29T05:32:54.609Z,101327.06
2023-08-29T05:35:21.376Z,101338.72
2023-08-29T05:37:47.947Z,101342.44
2023-08-29T05:40:14.589Z,101327.28
2023-08-29T05:42:41.102Z,101338.09
2023-08-29T05:45:08.178Z,101334.75
2023-08-29T05:47:34.716Z,101330.75
2023-08-29T05:50:01.398Z,101328.38
2023-08-29T05:52:28.167Z,101325.31
2023-08-29T05:54:54.720Z,101326.50
2023-08-29T05:57:21.378Z,101317.47
2023-08-29T05:59:47.923Z,101322.84
2023-08-29T06:02:14.463Z,101315.22
2023-08-29T06:04:41.021Z,101314.47
2023-08-29T06:07:08.546Z,101317.88
2023-08-29T06:09:34.997Z,101315.28
2023-08-29T06:12:01.597Z,101316.63
2023-08-29T06:14:28.130Z,101318.78
2023-08-29T06:16:54.699Z,101316.22
2023-08-29T06:19:21.227Z,101324.66
2023-08-29T06:21:47.785Z,101317.41
2023-08-29T06:24:15.742Z,101327.47
2023-08-29T06:26:42.513Z,101321.06
2023-08-29T06:29:09.131Z,101320.28
2023-08-29T06:31:35.615Z,101323.81
2023-08-29T06:34:02.153Z,101331.00
2023-08-29T06:36:28.816Z,101330.25
2023-08-29T06:38:55.261Z,101334.56
2023-08-29T06:41:21.865Z,101332.38
2023-08-29T06:43:48.382Z,101330.78
2023-08-29T06:46:15.414Z,101321.44
2023-08-29T06:48:44.669Z,101334.28
2023-08-29T06:51:11.367Z,101334.91
2023-08-29T06:53:37.958Z,101324.59
2023-08-29T06:56:05.347Z,101329.13
2023-08-29T06:58:32.070Z,101335.88
2023-08-29T07:00:58.668Z,101334.47
2023-08-29T07:03:25.308Z,101333.25
2023-08-29T07:05:51.980Z,101334.91
2023-08-29T07:08:18.613Z,101332.84
2023-08-29T07:10:45.201Z,101336.56
2023-08-29T07:13:11.782Z,101341.66
2023-08-29T07:15:38.307Z,101336.41
2023-08-29T07:18:07.120Z,101325.66
2023-08-29T07:20:34.891Z,101323.84
2023-08-29T07:23:01.573Z,101335.09
2023-08-29T07:25:43.448Z,101331.91
2023-08-29T07:28:14.472Z,101327.84
2023-08-29T07:30:44.356Z,101325.47
2023-08-29T07:33:12.276Z,101337.72
2023-08-29T07:35:40.346Z,101325.50
2023-08-29T07:38:07.649Z,101322.66
2023-08-29T07:40:35.019Z,101327.78
2023-08-29T07:43:06.525Z,101322.91
2023-08-29T07:45:33.893Z,101325.81
2023-08-29T07:48:00.740Z,101324.38
2023-08-29T07:50:28.493Z,101324.56
2023-08-29T07:52:55.709Z,101319.69
2023-08-29T07:55:22.621Z,101322.97
2023-08-29T07:57:49.927Z,101325.59
2023-08-29T08:00:18.065Z,101319.69
2023-08-29T08:02:44.908Z,101312.75
2023-08-29T08:05:14.549Z,101314.59
2023-08-29T08:07:42.599Z,101317.41
2023-08-29T08:10:09.731Z,101322.91
2023-08-29T08:12:36.662Z,101318.84
2023-08-29T08:15:05.501Z,101311.06
2023-08-29T08:17:33.290Z,101309.81
2023-08-29T08:19:59.834Z,101309.38
2023-08-29T08:22:26.367Z,101311.59
2023-08-29T08:24:52.915Z,101307.47
2023-08-29T08:27:20.148Z,101299.88
2023-08-29T08:29:46.612Z,101312.72
2023-08-29T08:32:13.118Z,101316.16
2023-08-29T08:34:39.586Z,101316.94
2023-08-29T08:37:06.077Z,101305.66
2023-08-29T08:39:32.938Z,101319.72
2023-08-29T08:41:59.486Z,101311.31
2023-08-29T08:44:26.350Z,101315.56
2023-08-29T08:46:53.588Z,101322.66
2023-08-29T08:49:20.439Z,101314.47
2023-08-29T08:51:49.828Z,101313.75
2023-08-29T08:54:16.545Z,101316.16
2023-08-29T08:56:43.752Z,101322.03
2023-08-29T08:59:10.672Z,101317.84
2023-08-29T09:01:38.501Z,101324.75
2023-08-29T09:04:05.399Z,101314.03
2023-08-29T09:06:32.156Z,101311.53
2023-08-29T09:09:18.685Z,101312.88
2023-08-29T09:11:51.127Z,101309.31
2023-08-29T09:14:17.649Z,101314.09
2023-08-29T09:16:44.954Z,101318.06
2023-08-29T09:19:11.421Z,101309.88
2023-08-29T09:21:43.042Z,101321.72
2023-08-29T09:24:13.856Z,101317.94
2023-08-29T09:26:41.645Z,101319.06
2023-08-29T09:29:18.912Z,101314.91
2023-08-29T09:31:49.093Z,101319.56
2023-08-29T09:34:30.244Z,101320.25
2023-08-29T09:36:58.163Z,101325.56
2023-08-29T09:39:25.099Z,101320.00
2023-08-29T09:42:03.663Z,101315.66
2023-08-29T09:44:34.697Z,101313.34
2023-08-29T09:47:01.595Z,101309.44
2023-08-29T09:49:44.822Z,101311.84
2023-08-29T09:52:11.440Z,101302.97
2023-08-29T09:54:49.584Z,101296.16
2023-08-29T09:57:20.642Z,101293.59
2023-08-29T09:59:47.972Z,101301.75
2023-08-29T10:02:15.796Z,101301.19
2023-08-29T10:04:58.237Z,101294.34
2023-08-29T10:07:40.882Z,101291.84
2023-08-29T10:10:09.141Z,101285.34
2023-08-29T10:12:36.276Z,101285.03
2023-08-29T10:15:05.225Z,101288.03
2023-08-29T10:17:33.853Z,101289.81
2023-08-29T10:20:01.024Z,101293.69
2023-08-29T10:22:31.080Z,101291.72
2023-08-29T10:25:01.957Z,101285.66
2023-08-29T10:27:28.678Z,101275.25
2023-08-29T10:29:56.483Z,101277.44
2023-08-29T10:32:26.668Z,101283.94
2023-08-29T10:34:54.255Z,101283.81
2023-08-29T10:37:22.355Z,101274.63
2023-08-29T10:39:52.170Z,101278.19
2023-08-29T10:42:19.071Z,101279.22
2023-08-29T10:44:46.279Z,101281.53
2023-08-29T10:47:32.021Z,101274.66
2023-08-29T10:50:00.742Z,101272.81
2023-08-29T10:52:38.482Z,101275.94
2023-08-29T10:55:10.047Z,101273.03
2023-08-29T10:57:37.125Z,101272.31
2023-08-29T11:00:16.850Z,101264.16
2023-08-29T11:02:44.445Z,101265.06
2023-08-29T11:05:13.026Z,101269.69
2023-08-29T11:07:40.101Z,101254.47
2023-08-29T11:10:13.961Z,101256.97
2023-08-29T11:13:10.157Z,101256.19
2023-08-29T11:15:48.703Z,101247.94
2023-08-29T11:18:22.168Z,101244.16
2023-08-29T11:20:48.881Z,101249.91
2023-08-29T11:23:15.401Z,101248.03
2023-08-29T11:25:41.984Z,101237.50
2023-08-29T11:28:08.751Z,101239.63
2023-08-29T11:30:43.899Z,101238.69
2023-08-29T11:33:11.163Z,101243.34
2023-08-29T11:35:37.688Z,101241.06
2023-08-29T11:38:06.028Z,101242.69
2023-08-29T11:40:41.778Z,101243.25
2023-08-29T11:44:12.486Z,101235.56
2023-08-29T11:46:08.538Z,101239.94
2023-08-29T11:48:35.649Z,101224.53
2023-08-29T11:51:08.825Z,101225.91
2023-08-29T11:53:37.828Z,101222.66
2023-08-29T11:56:06.326Z,101235.66
2023-08-29T11:58:34.953Z,101236.84
2023-08-29T12:01:02.765Z,101231.75
2023-08-29T12:03:29.448Z,101228.50
2023-08-29T12:05:58.364Z,101224.75
2023-08-29T12:08:38.694Z,101233.31
2023-08-29T12:11:07.793Z,101232.97
2023-08-29T12:13:38.093Z,101242.34
2023-08-29T12:16:13.846Z,101241.56
2023-08-29T12:18:40.963Z,101237.81
2023-08-29T12:21:18.212Z,101237.25
2023-08-29T12:23:46.387Z,101229.25
2023-08-29T12:26:15.992Z,101233.59
2023-08-29T12:28:42.581Z,101233.22
2023-08-29T12:31:09.542Z,101226.56
2023-08-29T12:33:37.049Z,101221.63
2023-08-29T12:36:04.305Z,101215.81
2023-08-29T12:38:31.869Z,101220.97
2023-08-29T12:40:58.775Z,101212.53
2023-08-29T12:43:25.757Z,101214.03
2023-08-29T12:45:59.448Z,101213.09
2023-08-29T12:48:26.915Z,101195.88
2023-08-29T12:50:53.554Z,101200.47
2023-08-29T12:53:20.094Z,101199.41
2023-08-29T12:55:46.759Z,101194.56
2023-08-29T12:58:14.071Z,101195.38
2023-08-29T13:00:42.814Z,101203.47
2023-08-29T13:03:09.879Z,101200.72
2023-08-29T13:05:36.779Z,101196.25
2023-08-29T13:08:04.729Z,101192.31
2023-08-29T13:10:32.067Z,101193.72
2023-08-29T13:12:58.690Z,101188.84
2023-08-29T13:15:33.794Z,101188.59
2023-08-29T13:18:07.790Z,101180.38
2023-08-29T13:20:35.178Z,101182.72
2023-08-29T13:23:04.212Z,101190.84
2023-08-29T13:25:30.898Z,101181.56
2023-08-29T13:27:58.859Z,101176.66
2023-08-29T13:30:25.674Z,101178.22
2023-08-29T13:32:52.524Z,101169.63
2023-08-29T13:35:20.265Z,101168.56
2023-08-29T13:37:47.273Z,101167.38
2023-08-29T13:40:14.499Z,101167.03
2023-08-29T13:42:41.200Z,101163.91
2023-08-29T13:45:08.606Z,101162.41
2023-08-29T13:47:35.190Z,101164.78
2023-08-29T13:50:01.819Z,101158.72
2023-08-29T13:52:28.333Z,101150.44
2023-08-29T13:54:54.922Z,101158.44
2023-08-29T13:57:21.498Z,101152.22
2023-08-29T13:59:48.067Z,101160.34
2023-08-29T14:02:14.829Z,101148.69
2023-08-29T14:04:41.389Z,101155.03
2023-08-29T14:07:07.898Z,101149.38
2023-08-29T14:09:34.438Z,101154.91
2023-08-29T14:12:01.045Z,101152.84
2023-08-29T14:14:27.643Z,101153.03
2023-08-29T14:16:54.157Z,101144.84
2023-08-29T14:19:21.762Z,101149.28
2023-08-29T14:21:49.338Z,101156.44
2023-08-29T14:24:16.391Z,101154.88
2023-08-29T14:26:43.177Z,101160.56
2023-08-29T14:29:09.784Z,101152.84
2023-08-29T14:31:36.759Z,101161.50
2023-08-29T14:34:03.394Z,101156.91
2023-08-29T14:36:33.282Z,101162.09
2023-08-29T14:39:01.761Z,101164.56
2023-08-29T14:41:28.647Z,101168.28
2023-08-29T14:43:55.976Z,101175.03
2023-08-29T14:46:22.675Z,101181.06
2023-08-29T14:48:49.319Z,101176.09
2023-08-29T14:51:15.883Z,101179.16
2023-08-29T14:53:42.368Z,101171.25
2023-08-29T14:56:09.091Z,101172.84
2023-08-29T14:58:35.673Z,101177.94
2023-08-29T15:01:02.491Z,101174.94
2023-08-29T15:03:29.264Z,101173.56
2023-08-29T15:05:57.596Z,101177.84
2023-08-29T15:08:26.889Z,101177.03
2023-08-29T15:10:54.452Z,101171.69
2023-08-29T15:13:22.412Z,101167.41
2023-08-29T15:15:49.136Z,101165.22
2023-08-29T15:18:17.262Z,101171.81
2023-08-29T15:20:44.270Z,101177.97
2023-08-29T15:23:11.972Z,101172.41
2023-08-29T15:25:38.582Z,101181.69
2023-08-29T15:28:05.872Z,101172.63
2023-08-29T15:30:33.355Z,101164.28
2023-08-29T15:33:00.049Z,101165.31
2023-08-29T15:35:26.675Z,101166.03
2023-08-29T15:37:53.294Z,101167.28
2023-08-29T15:40:19.946Z,101158.47
2023-08-29T15:42:47.818Z,101163.22
2023-08-29T15:45:14.437Z,101165.91
2023-08-29T15:47:41.250Z,101163.81
2023-08-29T15:50:08.381Z,101160.34
2023-08-29T15:52:34.957Z,101163.22
2023-08-29T15:55:01.499Z,101163.00
2023-08-29T15:57:28.102Z,101153.50
2023-08-29T15:59:54.634Z,101162.66
2023-08-29T16:02:21.109Z,101150.94
2023-08-29T16:04:47.603Z,101154.66
2023-08-29T16:07:14.175Z,101145.38
2023-08-29T16:09:40.769Z,101149.19
2023-08-29T16:12:07.445Z,101142.59
2023-08-29T16:14:33.970Z,101143.16
2023-08-29T16:17:02.579Z,101148.03
2023-08-29T16:19:29.548Z,101145.94
2023-08-29T16:21:56.094Z,101150.03
2023-08-29T16:24:22.670Z,101149.31
2023-08-29T16:26:49.517Z,101144.44
2023-08-29T16:29:17.136Z,101149.16
2023-08-29T16:31:44.268Z,101144.50
2023-08-29T16:34:10.773Z,101148.44
2023-08-29T16:36:37.361Z,101134.25
2023-08-29T16:39:03.920Z,101139.66
2023-08-29T16:41:30.450Z,101142.91
2023-08-29T16:43:56.981Z,101147.00
2023-08-29T16:46:23.554Z,101141.16
2023-08-29T16:48:50.132Z,101142.78
2023-08-29T16:51:16.638Z,101143.47
2023-08-29T16:53:43.166Z,101141.09
2023-08-29T16:56:10.058Z,101142.13
2023-08-29T16:58:36.637Z,101154.94
2023-08-29T17:01:03.240Z,101143.66
2023-08-29T17:03:29.988Z,101143.81
2023-08-29T17:05:56.803Z,101146.38
2023-08-29T17:08:24.435Z,101145.22
2023-08-29T17:10:51.063Z,101146.75
2023-08-29T17:13:17.661Z,101143.97
2023-08-29T17:15:44.859Z,101141.19
2023-08-29T17:18:12.081Z,101142.50
2023-08-29T17:20:38.969Z,101138.63
2023-08-29T17:23:05.564Z,101134.81
2023-08-29T17:25:32.539Z,101141.88
2023-08-29T17:27:59.792Z,101134.81
2023-08-29T17:30:26.655Z,101139.44
2023-08-29T17:32:53.165Z,101133.66
2023-08-29T17:35:19.865Z,101148.97
2023-08-29T17:37:46.425Z,101145.38
2023-08-29T17:40:13.108Z,101144.00
2023-08-29T17:42:40.577Z,101140.63
2023-08-29T17:45:10.804Z,101136.22
2023-08-29T17:47:38.681Z,101129.38
2023-08-29T17:50:06.684Z,101120.66
2023-08-29T17:52:33.130Z,101127.72
2023-08-29T17:54:59.686Z,101137.22
2023-08-29T17:57:26.386Z,101132.22
2023-08-29T17:59:55.638Z,101125.59
2023-08-29T18:02:23.039Z,101134.22
2023-08-29T18:04:50.344Z,101124.84
2023-08-29T18:07:18.131Z,101124.72
2023-08-29T18:10:08.155Z,101128.50
2023-08-29T18:12:35.263Z,101128.03
2023-08-29T18:15:01.946Z,101133.44
2023-08-29T18:17:28.635Z,101133.53
2023-08-29T18:19:58.097Z,101124.25
2023-08-29T18:22:25.676Z,101133.09
2023-08-29T18:24:52.695Z,101127.88
2023-08-29T18:27:23.186Z,101126.13
2023-08-29T18:29:49.977Z,101126.41
2023-08-29T18:32:16.770Z,101129.38
2023-08-29T18:34:46.385Z,101132.94
2023-08-29T18:37:12.904Z,101131.94
2023-08-29T18:39:39.444Z,101133.63
2023-08-29T18:42:08.953Z,101128.59
2023-08-29T18:44:37.282Z,101127.84
2023-08-29T18:47:04.980Z,101132.34
2023-08-29T18:49:36.569Z,101133.00
2023-08-29T18:52:04.357Z,101136.34
2023-08-29T18:54:33.816Z,101133.31
2023-08-29T18:57:00.341Z,101128.84
2023-08-29T18:59:26.947Z,101139.91
2023-08-29T19:01:53.476Z,101132.84
2023-08-29T19:04:19.958Z,101134.72
2023-08-29T19:06:48.611Z,101141.13
2023-08-29T19:09:15.224Z,101140.38
2023-08-29T19:11:41.773Z,101136.94
2023-08-29T19:14:08.480Z,101143.53
2023-08-29T19:16:35.242Z,101138.28
2023-08-29T19:19:01.815Z,101144.47
2023-08-29T19:21:28.389Z,101139.41
2023-08-29T19:23:56.140Z,101137.56
2023-08-29T19:26:24.326Z,101139.03
2023-08-29T19:28:50.861Z,101136.19
2023-08-29T19:31:17.390Z,101131.50
2023-08-29T19:33:43.918Z,101136.66
2023-08-29T19:36:15.748Z,101130.56
2023-08-29T19:38:43.850Z,101126.72
2023-08-29T19:41:12.618Z,101121.22
2023-08-29T19:43:39.210Z,101129.00
2023-08-29T19:46:05.919Z,101115.34
2023-08-29T19:48:32.631Z,101121.47
2023-08-29T19:50:59.376Z,101128.22
2023-08-29T19:53:26.208Z,101124.59
2023-08-29T19:55:54.744Z,101120.94
2023-08-29T19:58:22.654Z,101118.28
2023-08-29T20:00:51.386Z,101115.47
2023-08-29T20:03:18.971Z,101115.28
2023-08-29T20:05:45.933Z,101115.91
2023-08-29T20:08:15.313Z,101121.03
2023-08-29T20:10:44.161Z,101112.03
2023-08-29T20:13:10.825Z,101113.72
2023-08-29T20:15:42.034Z,101120.63
2023-08-29T20:18:09.022Z,101115.75
2023-08-29T20:20:35.809Z,101114.94
2023-08-29T20:23:03.292Z,101111.66
2023-08-29T20:25:29.935Z,101113.91
2023-08-29T20:27:56.491Z,101111.03
2023-08-29T20:30:24.944Z,101109.63
2023-08-29T20:32:52.557Z,101108.00
2023-08-29T20:35:19.604Z,101112.88
2023-08-29T20:37:46.281Z,101108.81
2023-08-29T20:40:13.156Z,101110.84
2023-08-29T20:42:39.922Z,101108.59
2023-08-29T20:45:08.072Z,101107.81
2023-08-29T20:47:34.946Z,101104.34
2023-08-29T20:50:02.242Z,101097.81
2023-08-29T20:52:28.875Z,101101.50
2023-08-29T20:54:55.580Z,101103.53
2023-08-29T20:57:22.088Z,101096.19
2023-08-29T20:59:48.677Z,101099.66
2023-08-29T21:02:15.207Z,101108.22
2023-08-29T21:04:41.729Z,101103.31
2023-08-29T21:07:08.700Z,101097.63
2023-08-29T21:09:35.209Z,101105.78
2023-08-29T21:12:01.780Z,101103.34
2023-08-29T21:14:28.266Z,101090.69
2023-08-29T21:16:54.792Z,101097.81
2023-08-29T21:19:21.365Z,101095.97
2023-08-29T21:21:48.867Z,101088.84
2023-08-29T21:24:15.427Z,101084.41
2023-08-29T21:26:41.965Z,101092.72
2023-08-29T21:29:09.023Z,101089.47
2023-08-29T21:31:35.605Z,101083.97
2023-08-29T21:34:02.199Z,101086.00
2023-08-29T21:36:28.719Z,101075.63
2023-08-29T21:38:55.347Z,101076.44
2023-08-29T21:41:21.998Z,101071.75
2023-08-29T21:43:48.483Z,101070.31
2023-08-29T21:46:14.959Z,101068.69
2023-08-29T21:48:41.497Z,101063.41
2023-08-29T21:51:13.138Z,101066.25
2023-08-29T21:53:39.861Z,101064.63
2023-08-29T21:56:10.198Z,101063.81
2023-08-29T21:58:36.775Z,101063.59
2023-08-29T22:01:03.399Z,101062.16
2023-08-29T22:03:30.145Z,101065.22
2023-08-29T22:05:56.773Z,101065.63
2023-08-29T22:08:23.359Z,101055.22
2023-08-29T22:10:49.926Z,101061.53
2023-08-29T22:13:16.530Z,101051.34
2023-08-29T22:15:43.128Z,101054.63
2023-08-29T22:18:10.328Z,101031.81
2023-08-29T22:20:37.328Z,101039.75
2023-08-29T22:23:04.406Z,101035.06
2023-08-29T22:25:30.861Z,101033.03
2023-08-29T22:27:57.476Z,101035.06
2023-08-29T22:30:25.517Z,101032.63
2023-08-29T22:32:55.677Z,101025.31
2023-08-29T22:35:22.324Z,101022.22
2023-08-29T22:37:49.541Z,101029.19
2023-08-29T22:40:16.478Z,101031.84
2023-08-29T22:42:44.022Z,101029.59
2023-08-29T22:45:10.985Z,101027.75
2023-08-29T22:47:37.590Z,101028.56
2023-08-29T22:50:04.522Z,101019.63
2023-08-29T22:52:31.112Z,101023.06
2023-08-29T22:54:57.626Z,101022.25
2023-08-29T22:57:24.151Z,101016.97
2023-08-29T22:59:50.692Z,101018.41
2023-08-29T23:02:17.292Z,101016.78
2023-08-29T23:04:43.852Z,101009.25
2023-08-29T23:07:10.405Z,101009.41
2023-08-29T23:09:37.510Z,101004.75
2023-08-29T23:12:05.045Z,101004.34
2023-08-29T23:14:31.787Z,100999.06
2023-08-29T23:16:58.480Z,100992.97
2023-08-29T23:19:25.455Z,100991.13
2023-08-29T23:21:52.840Z,100993.78
2023-08-29T23:24:19.709Z,100991.31
2023-08-29T23:26:46.400Z,100990.09
2023-08-29T23:29:13.236Z,100988.84
2023-08-29T23:31:40.994Z,100986.22
2023-08-29T23:34:07.968Z,100974.97
2023-08-29T23:36:34.899Z,100977.59
2023-08-29T23:39:02.066Z,100985.13
2023-08-29T23:41:28.736Z,100975.56
2023-08-29T23:43:55.358Z,100969.25
2023-08-29T23:46:22.335Z,100967.44
2023-08-29T23:48:49.076Z,100974.16
2023-08-29T23:51:15.911Z,100966.63
2023-08-29T23:53:42.613Z,100957.47
2023-08-29T23:56:09.203Z,100964.97
2023-08-29T23:58:35.737Z,100960.25
